KRNH/RNH METAR and TAF weather

Enter ICAO airport designator
Station Type Date Time Source
KRNH METAR 2020/04/05 15:35 UTC NOAA

KRNH 051535Z AUTO 17010KT 10SM CLR 06/M04 A3017 RMK AO2 T00551040


Station Type Date Time Source
KRNH Decoded METAR 2020/04/05 15:35 UTC NOAA

New Richmond, New Richmond Municipal Airport, WI, United States (KRNH) 45-08-54N 092-32-17W
Apr 05, 2020 - 11:35 AM EDT / 2020.04.05 1535 UTC
Wind: from the S (170 degrees) at 12 MPH (10 KT):0
Visibility: 10 mile(s):0
Sky conditions: clear
Temperature: 41.9 F (5.5 C)
Dew Point: 24.8 F (-4.0 C)
Relative Humidity: 50%
Pressure (altimeter): 30.17 in. Hg (1021 hPa)
ob: KRNH 051535Z AUTO 17010KT 10SM CLR 06/M04 A3017 RMK AO2 T00551040
cycle: 15

Station Type Date Time Source
KRNH TAF 2020/04/05 12:22 UTC NOAA

TAF KRNH 051120Z 0512/0612 12003KT P6SM FEW100
FM051600 17007KT P6SM FEW250
FM060100 13003KT P6SM SCT100

Example: see airport list